createdAt,value
2022-12-18T00:02:33.654Z,16.80
2022-12-18T00:05:37.266Z,13.00
2022-12-18T00:08:42.257Z,14.50
2022-12-18T00:11:45.099Z,18.30
2022-12-18T00:14:47.894Z,14.40
2022-12-18T00:17:53.058Z,15.90
2022-12-18T00:21:04.023Z,15.50
2022-12-18T00:24:07.252Z,21.70
2022-12-18T00:27:10.095Z,21.50
2022-12-18T00:30:14.753Z,18.00
2022-12-18T00:33:29.980Z,12.20
2022-12-18T00:36:35.817Z,8.30
2022-12-18T00:39:38.727Z,14.40
2022-12-18T00:42:56.513Z,12.50
2022-12-18T00:45:59.339Z,13.50
2022-12-18T00:49:03.050Z,12.80
2022-12-18T00:52:05.974Z,16.40
2022-12-18T00:55:39.985Z,21.70
2022-12-18T00:58:42.903Z,17.60
2022-12-18T01:01:47.253Z,14.40
2022-12-18T01:05:46.565Z,15.00
2022-12-18T01:08:49.365Z,15.80
2022-12-18T01:11:52.151Z,14.50
2022-12-18T01:14:55.000Z,18.80
2022-12-18T01:17:57.852Z,13.80
2022-12-18T01:21:00.748Z,14.70
2022-12-18T01:24:05.557Z,12.70
2022-12-18T01:27:08.435Z,12.80
2022-12-18T01:30:11.975Z,15.10
2022-12-18T01:33:14.865Z,11.40
2022-12-18T01:36:21.410Z,12.90
2022-12-18T01:39:24.419Z,9.90
2022-12-18T01:42:27.217Z,7.80
2022-12-18T01:45:34.407Z,11.70
2022-12-18T01:48:37.817Z,11.60
2022-12-18T01:51:40.687Z,14.90
2022-12-18T01:54:44.796Z,10.40
2022-12-18T01:57:48.152Z,10.40
2022-12-18T02:00:51.201Z,8.60
2022-12-18T02:03:54.410Z,8.80
2022-12-18T02:07:24.410Z,12.10
2022-12-18T02:10:32.894Z,9.50
2022-12-18T02:13:39.015Z,11.30
2022-12-18T02:17:31.667Z,9.90
2022-12-18T02:20:42.239Z,10.40
2022-12-18T02:24:04.640Z,13.30
2022-12-18T02:27:10.576Z,13.10
2022-12-18T02:30:15.391Z,10.10
2022-12-18T02:33:22.562Z,12.40
2022-12-18T02:36:27.084Z,7.20
2022-12-18T02:39:32.027Z,7.60
2022-12-18T02:42:34.821Z,9.10
2022-12-18T02:45:57.426Z,12.50
2022-12-18T02:49:13.241Z,14.50
2022-12-18T02:52:42.845Z,9.40
2022-12-18T02:56:18.151Z,10.40
2022-12-18T03:00:19.554Z,6.60
2022-12-18T03:03:36.729Z,6.50
2022-12-18T03:06:43.455Z,10.40
2022-12-18T03:09:51.226Z,8.40
2022-12-18T03:13:01.736Z,9.50
2022-12-18T03:16:07.291Z,7.60
2022-12-18T03:19:15.614Z,11.30
2022-12-18T03:22:20.066Z,14.40
2022-12-18T03:25:26.801Z,10.60
2022-12-18T03:28:37.634Z,11.00
2022-12-18T03:31:46.592Z,7.60
2022-12-18T03:34:54.137Z,5.90
2022-12-18T03:37:57.250Z,12.40
2022-12-18T03:41:21.871Z,10.40
2022-12-18T03:44:38.269Z,7.40
2022-12-18T03:47:54.410Z,9.30
2022-12-18T03:51:01.196Z,9.50
2022-12-18T03:55:17.634Z,11.30
2022-12-18T03:58:27.191Z,17.30
2022-12-18T04:01:35.293Z,18.20
2022-12-18T04:04:41.427Z,16.80
2022-12-18T04:07:46.029Z,12.30
2022-12-18T04:10:50.880Z,16.30
2022-12-18T04:13:58.805Z,15.60
2022-12-18T04:17:01.622Z,20.20
2022-12-18T04:20:04.970Z,19.10
2022-12-18T04:23:07.910Z,19.60
2022-12-18T04:26:11.223Z,17.30
2022-12-18T04:29:14.054Z,20.70
2022-12-18T04:32:17.419Z,22.20
2022-12-18T04:35:20.646Z,23.70
2022-12-18T04:38:23.483Z,23.10
2022-12-18T04:41:26.409Z,23.80
2022-12-18T04:44:29.190Z,20.10
2022-12-18T04:47:32.028Z,19.10
2022-12-18T04:51:01.032Z,18.40
2022-12-18T04:54:03.980Z,20.50
2022-12-18T04:57:08.188Z,14.80
2022-12-18T05:00:11.626Z,17.50
2022-12-18T05:03:14.463Z,15.90
2022-12-18T05:06:17.311Z,14.40
2022-12-18T05:09:20.152Z,18.70
2022-12-18T05:12:26.208Z,17.00
2022-12-18T05:15:30.814Z,18.60
2022-12-18T05:18:33.907Z,13.10
2022-12-18T05:21:55.483Z,13.80
2022-12-18T05:24:58.268Z,19.20
2022-12-18T05:28:01.069Z,15.10
2022-12-18T05:31:05.204Z,20.50
2022-12-18T05:34:08.230Z,7.70
2022-12-18T05:37:10.994Z,12.00
2022-12-18T05:40:14.395Z,15.50
2022-12-18T05:43:21.454Z,16.20
2022-12-18T05:46:25.573Z,12.60
2022-12-18T05:49:28.395Z,12.80
2022-12-18T05:52:31.890Z,10.10
2022-12-18T05:55:39.832Z,8.80
2022-12-18T05:58:43.330Z,13.60
2022-12-18T06:01:47.172Z,13.70
2022-12-18T06:04:50.038Z,14.50
2022-12-18T06:07:53.256Z,12.80
2022-12-18T06:10:56.726Z,9.80
2022-12-18T06:14:00.246Z,10.80
2022-12-18T06:17:03.966Z,13.10
2022-12-18T06:20:08.238Z,16.90
2022-12-18T06:26:48.131Z,13.90
2022-12-18T06:29:51.083Z,12.70
2022-12-18T06:32:56.668Z,12.10
2022-12-18T06:36:05.882Z,14.10
2022-12-18T06:39:09.243Z,18.70
2022-12-18T06:42:12.466Z,13.20
2022-12-18T06:45:15.424Z,11.70
2022-12-18T06:48:18.256Z,9.80
2022-12-18T06:51:23.377Z,9.40
2022-12-18T06:54:27.968Z,15.10
2022-12-18T06:57:33.235Z,18.00
2022-12-18T07:00:36.638Z,12.10
2022-12-18T07:03:43.153Z,11.90
2022-12-18T07:06:46.499Z,16.90
2022-12-18T07:09:51.106Z,18.70
2022-12-18T07:12:54.019Z,11.80
2022-12-18T07:15:56.879Z,14.50
2022-12-18T07:19:07.828Z,14.30
2022-12-18T07:22:10.823Z,14.30
2022-12-18T07:25:13.676Z,17.90
2022-12-18T07:28:17.661Z,12.20
2022-12-18T07:31:22.845Z,13.80
2022-12-18T07:34:25.966Z,15.20
2022-12-18T07:37:34.055Z,14.60
2022-12-18T07:40:36.835Z,10.50
2022-12-18T07:43:42.656Z,13.90
2022-12-18T07:46:45.900Z,11.80
2022-12-18T07:49:49.153Z,9.40
2022-12-18T07:52:52.191Z,9.80
2022-12-18T07:56:26.534Z,16.60
2022-12-18T07:59:27.987Z,14.30
2022-12-18T08:02:32.981Z,16.10
2022-12-18T08:05:35.978Z,15.70
2022-12-18T08:08:38.889Z,17.70
2022-12-18T08:12:08.623Z,9.50
2022-12-18T08:15:11.748Z,13.20
2022-12-18T08:18:14.693Z,21.80
2022-12-18T08:21:22.345Z,15.40
2022-12-18T08:24:25.231Z,17.90
2022-12-18T08:27:29.789Z,12.10
2022-12-18T08:30:33.162Z,12.30
2022-12-18T08:33:39.173Z,11.40
2022-12-18T08:36:42.298Z,14.70
2022-12-18T08:39:45.343Z,16.00
2022-12-18T08:43:06.886Z,14.40
2022-12-18T08:46:09.978Z,15.90
2022-12-18T08:49:13.270Z,13.90
2022-12-18T08:52:17.500Z,21.70
2022-12-18T08:55:20.612Z,27.00
2022-12-18T08:58:25.002Z,21.50
2022-12-18T09:01:28.103Z,18.10
2022-12-18T09:04:31.487Z,17.50
2022-12-18T09:07:34.315Z,17.20
2022-12-18T09:10:46.712Z,22.30
2022-12-18T09:13:55.024Z,18.00
2022-12-18T09:16:57.896Z,15.90
2022-12-18T09:20:01.113Z,19.30
2022-12-18T09:23:06.810Z,20.10
2022-12-18T09:26:10.595Z,23.70
2022-12-18T09:29:13.458Z,20.20
2022-12-18T09:32:22.004Z,16.50
2022-12-18T09:35:25.318Z,18.80
2022-12-18T09:38:28.063Z,25.50
2022-12-18T09:41:58.130Z,26.40
2022-12-18T09:45:01.800Z,31.70
2022-12-18T09:48:06.648Z,24.70
2022-12-18T09:51:44.688Z,21.70
2022-12-18T09:55:03.151Z,17.40
2022-12-18T09:58:15.345Z,29.30
2022-12-18T10:01:24.236Z,21.40
2022-12-18T10:04:31.796Z,20.20
2022-12-18T10:08:10.719Z,12.80
2022-12-18T10:11:25.579Z,21.00
2022-12-18T10:14:36.922Z,21.40
2022-12-18T10:17:53.322Z,21.10
2022-12-18T10:21:05.163Z,18.00
2022-12-18T10:24:41.485Z,20.90
2022-12-18T10:27:46.224Z,17.60
2022-12-18T10:30:49.133Z,27.30
2022-12-18T10:33:54.969Z,26.60
2022-12-18T10:37:07.476Z,20.40
2022-12-18T10:40:21.807Z,27.20
2022-12-18T10:43:36.228Z,24.00
2022-12-18T10:46:39.765Z,20.80
2022-12-18T10:49:53.973Z,21.30
2022-12-18T10:53:04.092Z,20.70
2022-12-18T10:56:08.614Z,22.80
2022-12-18T10:59:13.648Z,23.80
2022-12-18T11:02:36.055Z,16.10
2022-12-18T11:05:39.475Z,21.40
2022-12-18T11:08:45.340Z,24.50
2022-12-18T11:11:57.647Z,19.10
2022-12-18T11:15:01.161Z,19.10
2022-12-18T11:18:04.087Z,21.50
2022-12-18T11:21:12.433Z,23.30
2022-12-18T11:24:24.615Z,24.80
2022-12-18T11:27:29.795Z,32.80
2022-12-18T11:30:39.113Z,17.00
2022-12-18T11:34:04.927Z,20.50
2022-12-18T11:37:10.729Z,20.30
2022-12-18T11:40:21.367Z,26.80
2022-12-18T11:43:39.540Z,22.20
2022-12-18T11:46:50.498Z,25.90
2022-12-18T11:49:56.816Z,22.00
2022-12-18T11:53:04.310Z,24.90
2022-12-18T11:56:40.529Z,25.40
2022-12-18T11:59:56.581Z,27.20
2022-12-18T12:03:23.306Z,18.60
2022-12-18T12:06:40.020Z,20.90
2022-12-18T12:10:11.356Z,22.90
2022-12-18T12:13:27.370Z,27.10
2022-12-18T12:16:39.012Z,25.60
2022-12-18T12:19:54.212Z,20.90
2022-12-18T12:23:09.277Z,20.80
2022-12-18T12:26:43.696Z,24.80
2022-12-18T12:30:10.562Z,26.10
2022-12-18T12:33:36.294Z,26.50
2022-12-18T12:37:06.930Z,23.10
2022-12-18T12:40:48.792Z,25.00
2022-12-18T12:43:50.420Z,21.00
2022-12-18T12:46:59.418Z,28.20
2022-12-18T12:50:08.098Z,21.70
2022-12-18T12:53:27.699Z,23.60
2022-12-18T12:59:49.083Z,19.90
2022-12-18T13:03:12.709Z,19.50
2022-12-18T13:06:33.666Z,24.10
2022-12-18T13:10:17.230Z,22.50
2022-12-18T13:13:23.560Z,21.30
2022-12-18T13:16:30.718Z,29.60
2022-12-18T13:19:33.678Z,26.50
2022-12-18T13:22:47.130Z,31.20
2022-12-18T13:25:54.236Z,25.50
2022-12-18T13:28:58.550Z,24.30
2022-12-18T13:32:02.668Z,22.00
2022-12-18T13:35:21.017Z,22.90
2022-12-18T13:38:37.266Z,29.30
2022-12-18T13:41:42.082Z,27.70
2022-12-18T13:44:45.483Z,35.50
2022-12-18T13:47:48.995Z,24.70
2022-12-18T13:51:02.093Z,23.90
2022-12-18T13:54:19.376Z,28.50
2022-12-18T13:57:36.232Z,31.10
2022-12-18T14:00:43.918Z,28.90
2022-12-18T14:03:47.204Z,31.60
2022-12-18T14:06:54.229Z,27.20
2022-12-18T14:10:12.605Z,21.20
2022-12-18T14:13:35.120Z,28.40
2022-12-18T14:16:38.041Z,34.40
2022-12-18T14:19:46.678Z,37.70
2022-12-18T14:22:50.913Z,36.90
2022-12-18T14:25:53.779Z,31.70
2022-12-18T14:28:58.238Z,29.90
2022-12-18T14:32:19.449Z,29.20
2022-12-18T14:35:24.017Z,44.50
2022-12-18T14:38:37.154Z,45.30
2022-12-18T14:41:40.045Z,47.10
2022-12-18T14:45:05.125Z,40.30
2022-12-18T14:48:13.777Z,35.50
2022-12-18T14:51:22.804Z,38.40
2022-12-18T14:54:27.197Z,43.20
2022-12-18T14:57:37.105Z,32.80
2022-12-18T15:00:43.020Z,32.50
2022-12-18T15:03:46.091Z,33.80
2022-12-18T15:06:49.872Z,29.60
2022-12-18T15:10:15.559Z,33.50
2022-12-18T15:13:27.561Z,43.10
2022-12-18T15:16:30.962Z,47.10
2022-12-18T15:19:39.692Z,33.10
2022-12-18T15:25:46.445Z,31.50
2022-12-18T15:28:51.017Z,47.60
2022-12-18T15:32:19.124Z,41.70
2022-12-18T15:35:25.220Z,34.30
2022-12-18T15:38:28.432Z,36.70
2022-12-18T15:41:37.638Z,40.60
2022-12-18T15:44:40.597Z,47.20
2022-12-18T15:47:43.477Z,51.50
2022-12-18T15:50:47.529Z,39.30
2022-12-18T15:53:55.681Z,31.30
2022-12-18T15:57:17.264Z,41.40
2022-12-18T16:00:20.427Z,47.60
2022-12-18T16:03:23.541Z,46.40
2022-12-18T16:06:36.381Z,37.10
2022-12-18T16:09:50.893Z,32.60
2022-12-18T16:12:53.688Z,40.10
2022-12-18T16:15:56.716Z,46.10
2022-12-18T16:18:59.577Z,62.90
2022-12-18T16:22:03.919Z,46.10
2022-12-18T16:25:07.117Z,36.20
2022-12-18T16:28:09.926Z,34.80
2022-12-18T16:31:12.757Z,43.50
2022-12-18T16:34:26.802Z,50.30
2022-12-18T16:37:31.697Z,55.50
2022-12-18T16:40:54.435Z,50.20
2022-12-18T16:43:57.311Z,40.10
2022-12-18T16:47:03.027Z,34.40
2022-12-18T16:50:08.886Z,44.60
2022-12-18T16:53:11.682Z,53.10
2022-12-18T16:56:14.773Z,56.80
2022-12-18T16:59:17.671Z,41.90
2022-12-18T17:02:23.966Z,41.20
2022-12-18T17:05:28.458Z,46.50
2022-12-18T17:08:31.541Z,56.50
2022-12-18T17:11:37.635Z,53.90
2022-12-18T17:14:41.316Z,41.80
2022-12-18T17:17:44.157Z,35.80
2022-12-18T17:20:46.970Z,38.60
2022-12-18T17:23:49.812Z,49.60
2022-12-18T17:26:52.723Z,47.50
2022-12-18T17:29:55.598Z,48.60
2022-12-18T17:32:58.554Z,47.00
2022-12-18T17:36:01.309Z,42.80
2022-12-18T17:39:06.272Z,41.50
2022-12-18T17:42:10.677Z,52.50
2022-12-18T17:45:18.730Z,49.70
2022-12-18T17:48:21.574Z,64.10
2022-12-18T17:51:26.111Z,60.00
2022-12-18T17:54:28.947Z,41.60
2022-12-18T17:57:31.758Z,49.30
2022-12-18T18:00:34.729Z,46.50
2022-12-18T18:03:41.755Z,52.30
2022-12-18T18:06:45.434Z,54.10
2022-12-18T18:09:48.208Z,41.80
2022-12-18T18:13:09.524Z,35.40
2022-12-18T18:16:16.774Z,37.90
2022-12-18T18:19:23.070Z,52.10
2022-12-18T18:22:25.923Z,54.10
2022-12-18T18:25:28.822Z,34.50
2022-12-18T18:28:32.280Z,34.50
2022-12-18T18:31:41.017Z,51.20
2022-12-18T18:34:44.385Z,42.70
2022-12-18T18:37:50.784Z,48.90
2022-12-18T18:41:03.829Z,41.20
2022-12-18T18:44:07.055Z,49.50
2022-12-18T18:47:09.894Z,44.60
2022-12-18T18:50:13.155Z,55.30
2022-12-18T18:53:15.982Z,50.50
2022-12-18T18:57:04.170Z,51.40
2022-12-18T18:59:46.887Z,41.80
2022-12-18T19:02:49.952Z,41.40
2022-12-18T19:05:55.962Z,50.10
2022-12-18T19:08:59.688Z,56.30
2022-12-18T19:12:22.623Z,49.90
2022-12-18T19:15:25.495Z,35.60
2022-12-18T19:18:28.584Z,46.40
2022-12-18T19:21:34.240Z,48.10
2022-12-18T19:24:38.558Z,48.90
2022-12-18T19:27:41.587Z,60.60
2022-12-18T19:30:45.157Z,39.50
2022-12-18T19:33:49.623Z,46.70
2022-12-18T19:36:59.302Z,53.20
2022-12-18T19:40:12.308Z,53.50
2022-12-18T19:43:16.094Z,60.70
2022-12-18T19:46:21.232Z,41.00
2022-12-18T19:49:24.089Z,38.90
2022-12-18T19:52:27.214Z,41.80
2022-12-18T19:55:29.979Z,50.30
2022-12-18T19:58:33.094Z,56.80
2022-12-18T20:01:36.045Z,47.60
2022-12-18T20:04:39.246Z,39.10
2022-12-18T20:07:42.773Z,54.80
2022-12-18T20:10:50.082Z,59.90
2022-12-18T20:13:53.174Z,49.80
2022-12-18T20:16:56.206Z,62.40
2022-12-18T20:19:59.631Z,44.50
2022-12-18T20:23:03.808Z,40.60
2022-12-18T20:26:07.102Z,49.70
2022-12-18T20:29:18.331Z,51.30
2022-12-18T20:32:22.446Z,56.00
2022-12-18T20:35:28.305Z,49.00
2022-12-18T20:38:32.916Z,49.80
2022-12-18T20:41:38.407Z,49.80
2022-12-18T20:44:42.119Z,48.40
2022-12-18T20:47:45.459Z,51.50
2022-12-18T20:50:58.333Z,52.30
2022-12-18T20:54:06.124Z,43.70
2022-12-18T20:57:12.049Z,45.00
2022-12-18T21:00:16.519Z,49.50
2022-12-18T21:03:22.945Z,60.20
2022-12-18T21:06:25.909Z,56.10
2022-12-18T21:09:29.165Z,47.40
2022-12-18T21:13:01.533Z,34.20
2022-12-18T21:16:07.542Z,41.00
2022-12-18T21:19:16.223Z,41.20
2022-12-18T21:22:19.202Z,47.30
2022-12-18T21:25:22.248Z,46.70
2022-12-18T21:28:25.007Z,36.30
2022-12-18T21:31:32.990Z,30.10
2022-12-18T21:34:37.315Z,40.20
2022-12-18T21:37:40.388Z,45.00
2022-12-18T21:40:43.139Z,48.40
2022-12-18T21:44:04.861Z,59.30
2022-12-18T21:47:22.387Z,40.00
2022-12-18T21:50:26.247Z,37.50
2022-12-18T21:53:29.088Z,46.50
2022-12-18T21:56:55.976Z,47.50
2022-12-18T21:59:58.824Z,38.70
2022-12-18T22:03:17.667Z,37.30
2022-12-18T22:06:22.556Z,46.40
2022-12-18T22:09:25.982Z,46.10
2022-12-18T22:12:43.291Z,46.90
2022-12-18T22:15:46.930Z,52.10
2022-12-18T22:18:49.841Z,39.50
2022-12-18T22:21:53.738Z,37.50
2022-12-18T22:24:56.550Z,45.30
2022-12-18T22:28:17.979Z,44.10
2022-12-18T22:31:20.777Z,48.30
2022-12-18T22:34:23.633Z,50.40
2022-12-18T22:37:26.468Z,35.20
2022-12-18T22:40:29.786Z,28.60
2022-12-18T22:43:33.616Z,40.70
2022-12-18T22:46:40.276Z,47.70
2022-12-18T22:49:43.249Z,49.20
2022-12-18T22:52:46.046Z,50.20
2022-12-18T22:55:48.821Z,40.70
2022-12-18T22:58:52.128Z,30.30
2022-12-18T23:01:59.114Z,43.80
2022-12-18T23:05:02.304Z,37.50
2022-12-18T23:08:05.390Z,57.70
2022-12-18T23:11:09.373Z,47.10
2022-12-18T23:14:13.067Z,31.80
2022-12-18T23:17:15.918Z,30.80
2022-12-18T23:20:18.703Z,46.50
2022-12-18T23:23:21.492Z,49.70
2022-12-18T23:26:26.345Z,45.80
2022-12-18T23:29:29.122Z,27.90
2022-12-18T23:32:33.082Z,46.20
2022-12-18T23:35:37.409Z,45.30
2022-12-18T23:38:40.847Z,34.00
2022-12-18T23:41:43.629Z,50.50
2022-12-18T23:44:46.418Z,31.80
2022-12-18T23:47:50.906Z,30.50
2022-12-18T23:50:54.203Z,43.90
2022-12-18T23:53:59.619Z,49.10
2022-12-18T23:57:02.680Z,49.80
